Terminal Aerodrome Forecast
Issued by NWS Mt. Holly, NJ

Home | Current Version | Previous Version | Text Only | Print | Product List | Glossary On
Versions: 1 2 3 4 5 6 7 8 9 10 11 12 13 14 15 16 17 18 19 20 21 22 23 24 25 26 27
000
FTUS41 KPHI 172040 AAB
TAFRDG
TAF AMD
KRDG 172040Z 1721/1818 13004KT 6SM -SHRA BR OVC008
     FM172300 VRB03KT 3SM -SHRA BR OVC005
     FM180100 VRB03KT 1SM -DZ BR OVC003
     FM181100 31004KT 3SM BR BKN005 OVC015
     FM181500 31006KT P6SM BKN015
     FM181700 31010KT P6SM BKN035=

USA.gov is the U.S. government's official web portal to all federal, state and local government web resources and services.